createdAt,value
2022-08-20T00:00:14.000Z,54.7
2022-08-20T00:01:24.000Z,54.7
2022-08-20T00:02:34.000Z,54.7
2022-08-20T00:03:44.000Z,54.7
2022-08-20T00:04:54.000Z,54.7
2022-08-20T00:06:04.000Z,54.7
2022-08-20T00:07:13.000Z,54.7
2022-08-20T00:08:22.000Z,54.7
2022-08-20T00:09:33.000Z,54.7
2022-08-20T00:10:43.000Z,54.8
2022-08-20T00:11:53.000Z,54.8
2022-08-20T00:13:03.000Z,54.8
2022-08-20T00:14:13.000Z,54.8
2022-08-20T00:15:23.000Z,54.8
2022-08-20T00:16:33.000Z,54.8
2022-08-20T00:17:43.000Z,54.9
2022-08-20T00:18:53.000Z,54.8
2022-08-20T00:20:04.000Z,54.8
2022-08-20T00:21:14.000Z,54.8
2022-08-20T00:22:24.000Z,54.8
2022-08-20T00:23:33.000Z,54.9
2022-08-20T00:24:43.000Z,54.9
2022-08-20T00:25:53.000Z,54.9
2022-08-20T00:27:03.000Z,54.9
2022-08-20T00:28:13.000Z,54.9
2022-08-20T00:29:24.000Z,54.9
2022-08-20T00:30:34.000Z,54.9
2022-08-20T00:31:43.000Z,54.9
2022-08-20T00:32:53.000Z,54.9
2022-08-20T00:34:02.000Z,55
2022-08-20T00:35:12.000Z,55
2022-08-20T00:36:22.000Z,54.9
2022-08-20T00:37:32.000Z,55
2022-08-20T00:38:42.000Z,55
2022-08-20T00:39:53.000Z,55
2022-08-20T00:41:03.000Z,55
2022-08-20T00:42:13.000Z,55
2022-08-20T00:43:23.000Z,55
2022-08-20T00:44:33.000Z,55
2022-08-20T00:45:43.000Z,55
2022-08-20T00:46:53.000Z,55.1
2022-08-20T00:48:03.000Z,55.1
2022-08-20T00:49:14.000Z,55.1
2022-08-20T00:51:33.000Z,55.1
2022-08-20T00:52:43.000Z,55.1
2022-08-20T00:55:03.000Z,55.1
2022-08-20T00:56:12.000Z,55.1
2022-08-20T00:57:21.000Z,55.1
2022-08-20T00:58:32.000Z,55.1
2022-08-20T00:59:41.000Z,55.2
2022-08-20T01:00:51.000Z,55.2
2022-08-20T01:02:00.000Z,55.2
2022-08-20T01:03:09.000Z,55.2
2022-08-20T01:04:19.000Z,55.2
2022-08-20T01:05:29.000Z,55.2
2022-08-20T01:06:39.000Z,55.2
2022-08-20T01:07:50.000Z,55.2
2022-08-20T01:09:00.000Z,55.2
2022-08-20T01:10:10.000Z,55.2
2022-08-20T01:11:20.000Z,55.3
2022-08-20T01:12:30.000Z,55.3
2022-08-20T01:13:40.000Z,55.3
2022-08-20T01:14:50.000Z,55.3
2022-08-20T01:15:59.000Z,55.3
2022-08-20T01:17:08.000Z,55.3
2022-08-20T01:18:19.000Z,55.3
2022-08-20T01:19:29.000Z,55.3
2022-08-20T01:20:39.000Z,55.3
2022-08-20T01:21:49.000Z,55.3
2022-08-20T01:22:59.000Z,55.3
2022-08-20T01:24:09.000Z,55.4
2022-08-20T01:25:19.000Z,55.4
2022-08-20T01:26:29.000Z,55.4
2022-08-20T01:27:40.000Z,55.3
2022-08-20T01:28:50.000Z,55.4
2022-08-20T01:30:00.000Z,55.4
2022-08-20T01:31:10.000Z,55.4
2022-08-20T01:32:19.000Z,55.4
2022-08-20T01:33:29.000Z,55.4
2022-08-20T01:34:39.000Z,55.4
2022-08-20T01:35:49.000Z,55.4
2022-08-20T01:36:59.000Z,55.4
2022-08-20T01:38:10.000Z,55.5
2022-08-20T01:39:20.000Z,55.4
2022-08-20T01:41:39.000Z,55.5
2022-08-20T01:42:49.000Z,55.5
2022-08-20T01:43:58.000Z,55.5
2022-08-20T01:45:08.000Z,55.5
2022-08-20T01:46:17.000Z,55.5
2022-08-20T01:47:27.000Z,55.5
2022-08-20T01:48:37.000Z,55.6
2022-08-20T01:49:47.000Z,55.6
2022-08-20T01:50:57.000Z,55.6
2022-08-20T01:52:07.000Z,55.6
2022-08-20T01:53:17.000Z,55.6
2022-08-20T01:54:27.000Z,55.6
2022-08-20T01:55:37.000Z,55.6
2022-08-20T01:56:48.000Z,55.6
2022-08-20T01:57:58.000Z,55.6
2022-08-20T01:59:08.000Z,55.6
2022-08-20T02:00:18.000Z,55.6
2022-08-20T02:01:28.000Z,55.6
2022-08-20T02:03:47.000Z,55.7
2022-08-20T02:04:57.000Z,55.7
2022-08-20T02:06:07.000Z,55.7
2022-08-20T02:07:18.000Z,55.7
2022-08-20T02:08:28.000Z,55.7
2022-08-20T02:09:38.000Z,55.7
2022-08-20T02:10:47.000Z,55.7
2022-08-20T02:11:57.000Z,55.7
2022-08-20T02:13:06.000Z,55.7
2022-08-20T02:14:15.000Z,55.7
2022-08-20T02:15:25.000Z,55.7
2022-08-20T02:16:36.000Z,55.7
2022-08-20T02:17:46.000Z,55.8
2022-08-20T02:18:56.000Z,55.8
2022-08-20T02:20:06.000Z,55.8
2022-08-20T02:21:16.000Z,55.8
2022-08-20T02:22:26.000Z,55.8
2022-08-20T02:23:36.000Z,55.8
2022-08-20T02:24:46.000Z,55.8
2022-08-20T02:25:57.000Z,55.8
2022-08-20T02:28:17.000Z,55.8
2022-08-20T02:29:26.000Z,55.9
2022-08-20T02:30:36.000Z,55.9
2022-08-20T02:31:46.000Z,55.8
2022-08-20T02:32:56.000Z,55.9
2022-08-20T02:34:05.000Z,55.9
2022-08-20T02:35:15.000Z,55.9
2022-08-20T02:36:26.000Z,55.9
2022-08-20T02:37:36.000Z,55.9
2022-08-20T02:38:46.000Z,55.9
2022-08-20T02:39:55.000Z,55.9
2022-08-20T02:41:04.000Z,55.9
2022-08-20T02:42:13.000Z,55.9
2022-08-20T02:43:22.000Z,56
2022-08-20T02:44:33.000Z,55.9
2022-08-20T02:45:43.000Z,55.9
2022-08-20T02:46:53.000Z,55.9
2022-08-20T02:48:03.000Z,55.9
2022-08-20T02:49:13.000Z,56
2022-08-20T02:50:23.000Z,56
2022-08-20T02:51:33.000Z,56
2022-08-20T02:52:43.000Z,56
2022-08-20T02:53:53.000Z,56
2022-08-20T02:55:04.000Z,56
2022-08-20T02:56:14.000Z,56
2022-08-20T02:58:34.000Z,56
2022-08-20T02:59:43.000Z,56
2022-08-20T03:00:53.000Z,56
2022-08-20T03:02:03.000Z,56
2022-08-20T03:03:13.000Z,56.1
2022-08-20T03:04:24.000Z,56.1
2022-08-20T03:05:34.000Z,56.1
2022-08-20T03:06:44.000Z,56.1
2022-08-20T03:07:54.000Z,56.1
2022-08-20T03:09:04.000Z,56.1
2022-08-20T03:10:13.000Z,56.1
2022-08-20T03:11:22.000Z,56.1
2022-08-20T03:12:32.000Z,56.1
2022-08-20T03:13:42.000Z,56.1
2022-08-20T03:14:53.000Z,56.2
2022-08-20T03:16:03.000Z,56.2
2022-08-20T03:17:13.000Z,56.2
2022-08-20T03:18:23.000Z,56.2
2022-08-20T03:19:33.000Z,56.2
2022-08-20T03:20:43.000Z,56.2
2022-08-20T03:21:53.000Z,56.2
2022-08-20T03:23:03.000Z,56.2
2022-08-20T03:24:14.000Z,56.2
2022-08-20T03:25:24.000Z,56.2
2022-08-20T03:26:33.000Z,56.2
2022-08-20T03:27:43.000Z,56.2
2022-08-20T03:30:03.000Z,56.3
2022-08-20T03:31:13.000Z,56.3
2022-08-20T03:32:23.000Z,56.3
2022-08-20T03:33:33.000Z,56.3
2022-08-20T03:34:44.000Z,56.3
2022-08-20T03:35:53.000Z,56.3
2022-08-20T03:37:02.000Z,56.3
2022-08-20T03:38:12.000Z,56.3
2022-08-20T03:39:22.000Z,56.3
2022-08-20T03:40:32.000Z,56.3
2022-08-20T03:41:42.000Z,56.3
2022-08-20T03:42:52.000Z,56.3
2022-08-20T03:44:03.000Z,56.3
2022-08-20T03:46:23.000Z,56.4
2022-08-20T03:47:33.000Z,56.4
2022-08-20T03:48:43.000Z,56.4
2022-08-20T03:49:53.000Z,56.4
2022-08-20T03:51:03.000Z,56.4
2022-08-20T03:52:12.000Z,56.4
2022-08-20T03:53:22.000Z,56.4
2022-08-20T03:54:33.000Z,56.4
2022-08-20T03:55:43.000Z,56.4
2022-08-20T03:56:53.000Z,56.4
2022-08-20T03:58:03.000Z,56.4
2022-08-20T03:59:13.000Z,56.4
2022-08-20T04:00:23.000Z,56.4
2022-08-20T04:01:32.000Z,56.5
2022-08-20T04:02:41.000Z,56.5
2022-08-20T04:03:51.000Z,56.4
2022-08-20T04:05:00.000Z,56.5
2022-08-20T04:06:09.000Z,56.5
2022-08-20T04:07:18.000Z,56.5
2022-08-20T04:08:27.000Z,56.5
2022-08-20T04:09:36.000Z,56.6
2022-08-20T04:10:46.000Z,56.6
2022-08-20T04:11:57.000Z,56.5
2022-08-20T04:13:07.000Z,56.5
2022-08-20T04:14:17.000Z,56.4
2022-08-20T04:15:27.000Z,56.6
2022-08-20T04:16:37.000Z,56.6
2022-08-20T04:17:47.000Z,56.6
2022-08-20T04:18:57.000Z,56.6
2022-08-20T04:20:07.000Z,56.6
2022-08-20T04:21:17.000Z,56.6
2022-08-20T04:22:28.000Z,56.6
2022-08-20T04:23:38.000Z,56.7
2022-08-20T04:24:47.000Z,56.7
2022-08-20T04:25:57.000Z,56.7
2022-08-20T04:27:07.000Z,56.7
2022-08-20T04:28:17.000Z,56.7
2022-08-20T04:29:27.000Z,56.7
2022-08-20T04:30:37.000Z,56.7
2022-08-20T04:31:48.000Z,56.7
2022-08-20T04:32:57.000Z,56.7
2022-08-20T04:34:06.000Z,56.7
2022-08-20T04:35:16.000Z,56.7
2022-08-20T04:36:26.000Z,56.7
2022-08-20T04:37:35.000Z,56.7
2022-08-20T04:38:45.000Z,56.7
2022-08-20T04:39:54.000Z,56.7
2022-08-20T04:42:15.000Z,56.7
2022-08-20T04:43:25.000Z,56.6
2022-08-20T04:44:35.000Z,56.7
2022-08-20T04:45:45.000Z,56.7
2022-08-20T04:46:55.000Z,56.8
2022-08-20T04:48:05.000Z,56.7
2022-08-20T04:49:15.000Z,56.7
2022-08-20T04:50:25.000Z,56.7
2022-08-20T04:51:36.000Z,56.7
2022-08-20T04:52:46.000Z,56.8
2022-08-20T04:53:56.000Z,56.8
2022-08-20T04:55:05.000Z,56.8
2022-08-20T04:56:15.000Z,56.8
2022-08-20T04:57:25.000Z,56.8
2022-08-20T04:58:35.000Z,56.8
2022-08-20T04:59:45.000Z,56.8
2022-08-20T05:00:56.000Z,56.8
2022-08-20T05:02:06.000Z,56.8
2022-08-20T05:03:15.000Z,56.8
2022-08-20T05:04:24.000Z,56.8
2022-08-20T05:05:34.000Z,56.8
2022-08-20T05:06:43.000Z,56.8
2022-08-20T05:07:52.000Z,56.8
2022-08-20T05:09:02.000Z,56.8
2022-08-20T05:10:13.000Z,56.8
2022-08-20T05:11:23.000Z,56.8
2022-08-20T05:12:33.000Z,56.8
2022-08-20T05:13:43.000Z,56.8
2022-08-20T05:14:53.000Z,56.8
2022-08-20T05:16:03.000Z,56.8
2022-08-20T05:17:13.000Z,56.8
2022-08-20T05:18:23.000Z,56.8
2022-08-20T05:19:33.000Z,56.8
2022-08-20T05:20:44.000Z,56.8
2022-08-20T05:21:54.000Z,56.8
2022-08-20T05:23:03.000Z,56.8
2022-08-20T05:24:13.000Z,56.7
2022-08-20T05:25:23.000Z,56.7
2022-08-20T05:26:33.000Z,56.8
2022-08-20T05:27:43.000Z,56.6
2022-08-20T05:28:53.000Z,56.7
2022-08-20T05:30:04.000Z,56.7
2022-08-20T05:32:23.000Z,56.6
2022-08-20T05:33:33.000Z,56.5
2022-08-20T05:34:42.000Z,56.6
2022-08-20T05:35:51.000Z,56.5
2022-08-20T05:37:00.000Z,56.5
2022-08-20T05:38:09.000Z,56.4
2022-08-20T05:39:20.000Z,56.4
2022-08-20T05:40:30.000Z,56.4
2022-08-20T05:41:40.000Z,56.4
2022-08-20T05:42:50.000Z,56.4
2022-08-20T05:44:00.000Z,56.4
2022-08-20T05:45:10.000Z,56.3
2022-08-20T05:46:20.000Z,56.3
2022-08-20T05:47:30.000Z,56.3
2022-08-20T05:48:40.000Z,56.4
2022-08-20T05:49:51.000Z,56.3
2022-08-20T05:51:01.000Z,56.3
2022-08-20T05:52:11.000Z,56.3
2022-08-20T05:53:20.000Z,56.2
2022-08-20T05:54:30.000Z,56.1
2022-08-20T05:55:40.000Z,56.1
2022-08-20T05:56:50.000Z,56.1
2022-08-20T05:58:00.000Z,56.1
2022-08-20T05:59:11.000Z,56
2022-08-20T06:00:21.000Z,56.1
2022-08-20T06:01:30.000Z,56
2022-08-20T06:02:39.000Z,56
2022-08-20T06:03:48.000Z,56
2022-08-20T06:04:57.000Z,55.9
2022-08-20T06:06:07.000Z,56
2022-08-20T06:07:17.000Z,55.9
2022-08-20T06:08:28.000Z,55.9
2022-08-20T06:09:38.000Z,55.9
2022-08-20T06:10:48.000Z,56
2022-08-20T06:11:58.000Z,56
2022-08-20T06:13:08.000Z,56
2022-08-20T06:14:18.000Z,55.9
2022-08-20T06:15:28.000Z,55.9
2022-08-20T06:16:38.000Z,55.9
2022-08-20T06:17:49.000Z,56
2022-08-20T06:18:59.000Z,56
2022-08-20T06:20:08.000Z,56
2022-08-20T06:21:18.000Z,56
2022-08-20T06:22:28.000Z,55.9
2022-08-20T06:23:38.000Z,56
2022-08-20T06:24:48.000Z,56
2022-08-20T06:25:58.000Z,56
2022-08-20T06:27:08.000Z,56
2022-08-20T06:28:18.000Z,56
2022-08-20T06:29:27.000Z,56
2022-08-20T06:30:37.000Z,56
2022-08-20T06:31:47.000Z,56
2022-08-20T06:32:57.000Z,56
2022-08-20T06:34:07.000Z,56.1
2022-08-20T06:35:17.000Z,56
2022-08-20T06:36:27.000Z,56
2022-08-20T06:37:38.000Z,56
2022-08-20T06:38:48.000Z,56
2022-08-20T06:39:58.000Z,56
2022-08-20T06:41:08.000Z,56
2022-08-20T06:43:28.000Z,56.1
2022-08-20T06:44:37.000Z,56.1
2022-08-20T06:45:47.000Z,56.1
2022-08-20T06:46:57.000Z,56.1
2022-08-20T06:48:08.000Z,56.1
2022-08-20T06:49:18.000Z,56.1
2022-08-20T06:50:28.000Z,56.2
2022-08-20T06:51:38.000Z,56.1
2022-08-20T06:52:48.000Z,56.1
2022-08-20T06:53:57.000Z,56.1
2022-08-20T06:55:06.000Z,56.1
2022-08-20T06:56:15.000Z,56.1
2022-08-20T06:57:26.000Z,56.1
2022-08-20T06:58:35.000Z,56.1
2022-08-20T06:59:44.000Z,56.1
2022-08-20T07:00:54.000Z,56
2022-08-20T07:02:04.000Z,56
2022-08-20T07:03:14.000Z,56
2022-08-20T07:04:24.000Z,56
2022-08-20T07:05:34.000Z,56
2022-08-20T07:06:45.000Z,56
2022-08-20T07:07:55.000Z,56
2022-08-20T07:09:05.000Z,56.1
2022-08-20T07:10:15.000Z,56.1
2022-08-20T07:11:25.000Z,56.1
2022-08-20T07:12:35.000Z,56.1
2022-08-20T07:13:45.000Z,56.2
2022-08-20T07:16:05.000Z,56.2
2022-08-20T07:17:15.000Z,56.2
2022-08-20T07:18:25.000Z,56.2
2022-08-20T07:19:35.000Z,56.2
2022-08-20T07:20:45.000Z,56.2
2022-08-20T07:21:55.000Z,56.2
2022-08-20T07:23:05.000Z,56.2
2022-08-20T07:24:14.000Z,56.1
2022-08-20T07:25:23.000Z,56.1
2022-08-20T07:26:33.000Z,56.2
2022-08-20T07:27:42.000Z,56.1
2022-08-20T07:28:52.000Z,56
2022-08-20T07:31:12.000Z,56
2022-08-20T07:32:22.000Z,55.9
2022-08-20T07:33:32.000Z,56
2022-08-20T07:35:53.000Z,55.9
2022-08-20T07:37:03.000Z,55.9
2022-08-20T07:38:13.000Z,55.8
2022-08-20T07:39:23.000Z,55.8
2022-08-20T07:40:33.000Z,55.8
2022-08-20T07:41:42.000Z,55.8
2022-08-20T07:42:51.000Z,55.8
2022-08-20T07:44:01.000Z,55.8
2022-08-20T07:45:12.000Z,55.8
2022-08-20T07:46:22.000Z,55.8
2022-08-20T07:47:32.000Z,55.8
2022-08-20T07:48:42.000Z,55.8
2022-08-20T07:49:52.000Z,55.7
2022-08-20T07:51:02.000Z,55.7
2022-08-20T07:52:12.000Z,55.7
2022-08-20T07:53:22.000Z,55.7
2022-08-20T07:54:32.000Z,55.7
2022-08-20T07:55:41.000Z,55.7
2022-08-20T07:56:51.000Z,55.7
2022-08-20T07:58:01.000Z,55.7
2022-08-20T07:59:11.000Z,55.7
2022-08-20T08:00:21.000Z,55.7
2022-08-20T08:01:31.000Z,55.7
2022-08-20T08:02:41.000Z,55.8
2022-08-20T08:03:51.000Z,55.7
2022-08-20T08:05:02.000Z,55.7
2022-08-20T08:06:12.000Z,55.7
2022-08-20T08:07:22.000Z,55.7
2022-08-20T08:08:32.000Z,55.7
2022-08-20T08:09:42.000Z,55.7
2022-08-20T08:10:51.000Z,55.7
2022-08-20T08:12:01.000Z,55.7
2022-08-20T08:13:11.000Z,55.7
2022-08-20T08:14:22.000Z,55.7
2022-08-20T08:15:32.000Z,55.7
2022-08-20T08:16:42.000Z,55.7
2022-08-20T08:17:52.000Z,55.7
2022-08-20T08:19:01.000Z,55.7
2022-08-20T08:20:10.000Z,55.7
2022-08-20T08:21:20.000Z,55.7
2022-08-20T08:22:30.000Z,55.7
2022-08-20T08:23:40.000Z,55.7
2022-08-20T08:24:51.000Z,55.6
2022-08-20T08:26:01.000Z,55.6
2022-08-20T08:27:11.000Z,55.6
2022-08-20T08:28:21.000Z,55.6
2022-08-20T08:29:31.000Z,55.6
2022-08-20T08:30:41.000Z,55.6
2022-08-20T08:31:51.000Z,55.6
2022-08-20T08:33:01.000Z,55.6
2022-08-20T08:34:12.000Z,55.6
2022-08-20T08:35:21.000Z,55.6
2022-08-20T08:36:31.000Z,55.6
2022-08-20T08:37:41.000Z,55.6
2022-08-20T08:38:51.000Z,55.6
2022-08-20T08:40:01.000Z,55.6
2022-08-20T08:41:11.000Z,55.6
2022-08-20T08:42:21.000Z,55.6
2022-08-20T08:43:31.000Z,55.5
2022-08-20T08:44:40.000Z,55.5
2022-08-20T08:45:50.000Z,55.5
2022-08-20T08:46:59.000Z,55.5
2022-08-20T08:48:08.000Z,55.5
2022-08-20T08:49:17.000Z,55.4
2022-08-20T08:50:26.000Z,55.4
2022-08-20T08:51:36.000Z,55.4
2022-08-20T08:52:47.000Z,55.3
2022-08-20T08:53:57.000Z,55.3
2022-08-20T08:55:07.000Z,55.3
2022-08-20T08:56:17.000Z,55.2
2022-08-20T08:57:27.000Z,55.2
2022-08-20T08:58:37.000Z,55.1
2022-08-20T08:59:47.000Z,55
2022-08-20T09:00:57.000Z,55
2022-08-20T09:02:07.000Z,54.9
2022-08-20T09:03:18.000Z,54.9
2022-08-20T09:04:28.000Z,54.8
2022-08-20T09:05:37.000Z,54.8
2022-08-20T09:06:47.000Z,54.7
2022-08-20T09:07:57.000Z,54.7
2022-08-20T09:09:07.000Z,54.5
2022-08-20T09:10:17.000Z,54.4
2022-08-20T09:11:27.000Z,54.4
2022-08-20T09:12:38.000Z,54.4
2022-08-20T09:13:47.000Z,54.4
2022-08-20T09:14:56.000Z,54.4
2022-08-20T09:16:06.000Z,54.4
2022-08-20T09:17:16.000Z,54.2
2022-08-20T09:18:25.000Z,54.2
2022-08-20T09:19:35.000Z,54.2
2022-08-20T09:20:44.000Z,54.2
2022-08-20T09:21:55.000Z,54.1
2022-08-20T09:23:05.000Z,54.1
2022-08-20T09:24:15.000Z,54.1
2022-08-20T09:25:25.000Z,54
2022-08-20T09:26:35.000Z,54
2022-08-20T09:27:45.000Z,54
2022-08-20T09:28:55.000Z,54
2022-08-20T09:30:05.000Z,53.9
2022-08-20T09:31:15.000Z,54
2022-08-20T09:32:26.000Z,54
2022-08-20T09:33:36.000Z,53.9
2022-08-20T09:34:46.000Z,54
2022-08-20T09:35:55.000Z,53.9
2022-08-20T09:37:05.000Z,53.9
2022-08-20T09:38:15.000Z,53.9
2022-08-20T09:39:25.000Z,53.9
2022-08-20T09:40:35.000Z,53.9
2022-08-20T09:41:46.000Z,53.8
2022-08-20T09:42:56.000Z,53.8
2022-08-20T09:44:05.000Z,53.8
2022-08-20T09:46:24.000Z,53.7
2022-08-20T09:47:33.000Z,53.7
2022-08-20T09:48:42.000Z,53.6
2022-08-20T09:49:52.000Z,53.5
2022-08-20T09:51:03.000Z,53.5
2022-08-20T09:52:13.000Z,53.4
2022-08-20T09:53:23.000Z,53.4
2022-08-20T09:54:33.000Z,53.3
2022-08-20T09:55:43.000Z,53.3
2022-08-20T09:56:53.000Z,53.3
2022-08-20T09:58:03.000Z,53.2
2022-08-20T09:59:13.000Z,53.1
2022-08-20T10:00:23.000Z,53.1
2022-08-20T10:01:34.000Z,53
2022-08-20T10:02:44.000Z,53
2022-08-20T10:03:53.000Z,52.9
2022-08-20T10:05:03.000Z,52.9
2022-08-20T10:06:13.000Z,52.8
2022-08-20T10:07:23.000Z,52.8
2022-08-20T10:08:33.000Z,52.8
2022-08-20T10:09:43.000Z,52.9
2022-08-20T10:10:54.000Z,52.8
2022-08-20T10:12:03.000Z,52.8
2022-08-20T10:13:13.000Z,52.8
2022-08-20T10:14:22.000Z,52.7
2022-08-20T10:15:31.000Z,52.7
2022-08-20T10:16:40.000Z,52.7
2022-08-20T10:17:50.000Z,52.6
2022-08-20T10:19:00.000Z,52.6
2022-08-20T10:20:11.000Z,52.6
2022-08-20T10:22:31.000Z,52.5
2022-08-20T10:23:40.000Z,52.5
2022-08-20T10:24:50.000Z,52.5
2022-08-20T10:26:00.000Z,52.5
2022-08-20T10:27:10.000Z,52.5
2022-08-20T10:28:20.000Z,52.4
2022-08-20T10:29:30.000Z,52.4
2022-08-20T10:30:41.000Z,52.3
2022-08-20T10:31:51.000Z,52.3
2022-08-20T10:33:01.000Z,52.3
2022-08-20T10:34:11.000Z,52.2
2022-08-20T10:35:21.000Z,52.2
2022-08-20T10:36:31.000Z,52.2
2022-08-20T10:37:41.000Z,52.1
2022-08-20T10:38:50.000Z,52.1
2022-08-20T10:40:01.000Z,52
2022-08-20T10:41:10.000Z,52
2022-08-20T10:42:19.000Z,51.9
2022-08-20T10:43:29.000Z,51.9
2022-08-20T10:44:39.000Z,51.8
2022-08-20T10:45:49.000Z,51.7
2022-08-20T10:46:59.000Z,51.7
2022-08-20T10:48:09.000Z,51.7
2022-08-20T10:49:20.000Z,51.6
2022-08-20T10:50:30.000Z,51.6
2022-08-20T10:51:40.000Z,51.5
2022-08-20T10:52:50.000Z,51.5
2022-08-20T10:54:00.000Z,51.4
2022-08-20T10:55:10.000Z,51.4
2022-08-20T10:56:20.000Z,51.3
2022-08-20T10:57:29.000Z,51.3
2022-08-20T10:58:39.000Z,51.2
2022-08-20T10:59:50.000Z,51.2
2022-08-20T11:01:00.000Z,51.1
2022-08-20T11:02:10.318Z,51.1
2022-08-20T11:03:20.000Z,51.1
2022-08-20T11:04:30.000Z,51.1
2022-08-20T11:05:39.000Z,51
2022-08-20T11:06:49.000Z,51
2022-08-20T11:07:58.000Z,51
2022-08-20T11:09:08.000Z,51
2022-08-20T11:10:17.000Z,51
2022-08-20T11:11:26.000Z,50.9
2022-08-20T11:12:36.000Z,50.8
2022-08-20T11:13:46.000Z,50.8
2022-08-20T11:14:56.000Z,50.7
2022-08-20T11:16:06.000Z,50.6
2022-08-20T11:17:16.000Z,50.5
2022-08-20T11:18:27.000Z,50.5
2022-08-20T11:19:37.000Z,50.3
2022-08-20T11:20:47.000Z,50.3
2022-08-20T11:21:57.000Z,50.3
2022-08-20T11:23:07.000Z,50.2
2022-08-20T11:24:17.000Z,50.1
2022-08-20T11:25:27.000Z,50.1
2022-08-20T11:26:37.000Z,50.1
2022-08-20T11:27:46.000Z,50
2022-08-20T11:28:57.000Z,50
2022-08-20T11:30:07.000Z,49.9
2022-08-20T11:31:17.000Z,49.9
2022-08-20T11:32:27.000Z,50
2022-08-20T11:33:37.000Z,50
2022-08-20T11:34:46.000Z,50
2022-08-20T11:35:55.000Z,50
2022-08-20T11:37:05.000Z,49.9
2022-08-20T11:38:15.000Z,49.8
2022-08-20T11:39:24.000Z,49.6
2022-08-20T11:40:34.000Z,49.5
2022-08-20T11:41:44.000Z,49.5
2022-08-20T11:42:54.000Z,49.3
2022-08-20T11:44:04.000Z,49.3
2022-08-20T11:45:14.000Z,49.3
2022-08-20T11:46:24.000Z,49.3
2022-08-20T11:47:35.000Z,49.5
2022-08-20T11:48:45.000Z,49.5
2022-08-20T11:49:55.000Z,49.3
2022-08-20T11:51:05.000Z,49.3
2022-08-20T11:52:15.000Z,49.3
2022-08-20T11:53:25.000Z,49.2
2022-08-20T11:54:34.000Z,49.2
2022-08-20T11:56:55.000Z,49.1
2022-08-20T11:58:05.000Z,49.1
2022-08-20T11:59:15.000Z,49.1
2022-08-20T12:00:25.000Z,49
2022-08-20T12:01:35.000Z,48.9
2022-08-20T12:02:45.000Z,48.7
2022-08-20T12:03:54.000Z,48.7
2022-08-20T12:05:03.000Z,48.7
2022-08-20T12:06:13.000Z,48.7
2022-08-20T12:07:22.000Z,48.6
2022-08-20T12:08:32.000Z,48.5
2022-08-20T12:09:42.000Z,48.6
2022-08-20T12:10:52.000Z,48.5
2022-08-20T12:12:02.000Z,48.5
2022-08-20T12:13:12.000Z,48.5
2022-08-20T12:14:22.000Z,48.5
2022-08-20T12:15:32.000Z,48.4
2022-08-20T12:16:43.000Z,48.3
2022-08-20T12:17:53.000Z,48.2
2022-08-20T12:19:03.000Z,48.1
2022-08-20T12:20:13.000Z,48
2022-08-20T12:21:23.000Z,48
2022-08-20T12:22:32.000Z,48
2022-08-20T12:23:42.000Z,47.9
2022-08-20T12:24:52.894Z,47.8
2022-08-20T12:26:03.000Z,47.7
2022-08-20T12:27:13.000Z,47.6
2022-08-20T12:28:23.000Z,47.4
2022-08-20T12:29:33.000Z,47.3
2022-08-20T12:30:42.000Z,47.2
2022-08-20T12:31:51.000Z,47.3
2022-08-20T12:33:00.000Z,47.4
2022-08-20T12:34:09.000Z,47.4
2022-08-20T12:36:30.000Z,47.5
2022-08-20T12:37:40.000Z,47.4
2022-08-20T12:38:50.000Z,47.5
2022-08-20T12:40:00.000Z,47.5
2022-08-20T12:41:10.000Z,47
2022-08-20T12:42:20.000Z,46.1
2022-08-20T12:43:30.000Z,45.4
2022-08-20T12:44:40.000Z,44.8
2022-08-20T12:45:51.000Z,44.2
2022-08-20T12:47:01.000Z,43.7
2022-08-20T12:48:11.000Z,43.1
2022-08-20T12:49:20.000Z,42.6
2022-08-20T12:50:30.000Z,42.1
2022-08-20T12:51:40.000Z,41.7
2022-08-20T12:52:50.000Z,41.8
2022-08-20T12:54:00.000Z,41.7
2022-08-20T12:55:11.000Z,41.8
2022-08-20T12:56:21.000Z,41.3
2022-08-20T12:57:31.000Z,42.1
2022-08-20T12:58:40.000Z,42.2
2022-08-20T12:59:49.000Z,42.7
2022-08-20T13:00:58.000Z,43.1
2022-08-20T13:02:07.000Z,43.6
2022-08-20T13:03:17.000Z,43.1
2022-08-20T13:04:28.000Z,41.8
2022-08-20T13:05:38.000Z,41
2022-08-20T13:06:48.000Z,40.9
2022-08-20T13:07:58.000Z,40.7
2022-08-20T13:09:08.000Z,40.4
2022-08-20T13:10:18.000Z,39.7
2022-08-20T13:11:28.000Z,39.3
2022-08-20T13:12:38.000Z,38.8
2022-08-20T13:13:48.000Z,38.4
2022-08-20T13:14:59.000Z,38.1
2022-08-20T13:16:09.000Z,37.7
2022-08-20T13:17:18.000Z,37.5
2022-08-20T13:18:28.000Z,37.3
2022-08-20T13:19:38.000Z,37.1
2022-08-20T13:20:48.000Z,36.9
2022-08-20T13:21:58.000Z,37
2022-08-20T13:24:19.000Z,38.1
2022-08-20T13:25:29.000Z,37.6
2022-08-20T13:26:38.000Z,37.4
2022-08-20T13:27:47.000Z,38.6
2022-08-20T13:28:57.000Z,39.5
2022-08-20T13:30:07.000Z,40.2
2022-08-20T13:31:17.000Z,40
2022-08-20T13:32:27.000Z,39.5
2022-08-20T13:33:38.000Z,39.2
2022-08-20T13:34:48.000Z,38.9
2022-08-20T13:35:58.000Z,38.3
2022-08-20T13:37:08.000Z,37.8
2022-08-20T13:38:18.000Z,37.8
2022-08-20T13:39:28.000Z,37.5
2022-08-20T13:40:38.000Z,38.2
2022-08-20T13:41:48.000Z,39.1
2022-08-20T13:42:57.000Z,39.7
2022-08-20T13:44:08.000Z,39
2022-08-20T13:45:18.000Z,38.3
2022-08-20T13:46:28.000Z,37.7
2022-08-20T13:47:38.000Z,37.1
2022-08-20T13:48:48.000Z,36.8
2022-08-20T13:49:58.000Z,36.5
2022-08-20T13:51:08.000Z,36.3
2022-08-20T13:52:17.000Z,36.3
2022-08-20T13:53:27.000Z,36.7
2022-08-20T13:54:36.000Z,37.5
2022-08-20T13:55:45.000Z,38
2022-08-20T13:56:55.000Z,38.3
2022-08-20T13:58:05.000Z,38
2022-08-20T13:59:15.000Z,37.5
2022-08-20T14:00:25.000Z,37.1
2022-08-20T14:01:35.000Z,37.8
2022-08-20T14:03:56.000Z,38
2022-08-20T14:05:06.000Z,37.2
2022-08-20T14:06:16.000Z,37.3
2022-08-20T14:07:26.000Z,38.2
2022-08-20T14:09:46.000Z,38.3
2022-08-20T14:10:55.000Z,38
2022-08-20T14:12:05.000Z,38.8
2022-08-20T14:13:15.000Z,39
2022-08-20T14:14:25.000Z,39.5
2022-08-20T14:15:35.000Z,39.2
2022-08-20T14:16:45.000Z,38.2
2022-08-20T14:17:54.000Z,37.5
2022-08-20T14:19:04.000Z,38.3
2022-08-20T14:20:14.000Z,38.7
2022-08-20T14:21:24.000Z,38.1
2022-08-20T14:22:35.000Z,39
2022-08-20T14:23:45.000Z,39.7
2022-08-20T14:24:55.000Z,40.1
2022-08-20T14:27:14.000Z,40.9
2022-08-20T14:28:23.000Z,41.2
2022-08-20T14:29:33.000Z,41.5
2022-08-20T14:30:43.000Z,41.6
2022-08-20T14:31:54.000Z,41.8
2022-08-20T14:33:04.000Z,41.9
2022-08-20T14:34:14.000Z,42.2
2022-08-20T14:35:24.000Z,42.4
2022-08-20T14:36:33.000Z,42.5
2022-08-20T14:37:42.000Z,42.7
2022-08-20T14:38:52.000Z,42.8
2022-08-20T14:40:02.000Z,43
2022-08-20T14:41:13.000Z,43.1
2022-08-20T14:42:23.000Z,43.3
2022-08-20T14:43:33.000Z,43.5
2022-08-20T14:44:43.000Z,43.5
2022-08-20T14:45:53.000Z,43.8
2022-08-20T14:47:03.000Z,43.9
2022-08-20T14:48:13.000Z,44
2022-08-20T14:49:23.000Z,44
2022-08-20T14:50:33.000Z,44
2022-08-20T14:52:54.000Z,42
2022-08-20T14:54:04.000Z,41
2022-08-20T14:55:13.000Z,40.3
2022-08-20T14:56:23.000Z,41.1
2022-08-20T14:57:33.000Z,41.7
2022-08-20T14:58:43.000Z,42
2022-08-20T14:59:53.000Z,41.8
2022-08-20T15:01:04.000Z,42
2022-08-20T15:02:13.000Z,42.3
2022-08-20T15:03:22.000Z,42.5
2022-08-20T15:04:31.000Z,42.8
2022-08-20T15:05:40.000Z,43
2022-08-20T15:06:50.000Z,43.3
2022-08-20T15:08:00.000Z,43.5
2022-08-20T15:09:10.000Z,43.7
2022-08-20T15:10:21.000Z,43.9
2022-08-20T15:11:31.000Z,43.5
2022-08-20T15:12:41.000Z,43.7
2022-08-20T15:13:51.000Z,43.9
2022-08-20T15:15:01.000Z,44.1
2022-08-20T15:16:11.000Z,44.3
2022-08-20T15:17:21.000Z,44.4
2022-08-20T15:18:31.000Z,44.6
2022-08-20T15:19:42.000Z,44.7
2022-08-20T15:20:52.000Z,44.8
2022-08-20T15:22:01.000Z,44.8
2022-08-20T15:23:11.000Z,44.8
2022-08-20T15:24:21.000Z,44.3
2022-08-20T15:25:31.000Z,43
2022-08-20T15:26:41.000Z,42.4
2022-08-20T15:27:51.000Z,41.7
2022-08-20T15:29:01.000Z,42.2
2022-08-20T15:30:10.000Z,42.8
2022-08-20T15:31:19.000Z,43
2022-08-20T15:32:28.000Z,43
2022-08-20T15:33:38.000Z,43.4
2022-08-20T15:34:48.000Z,42.6
2022-08-20T15:35:58.000Z,41.8
2022-08-20T15:37:08.000Z,41.1
2022-08-20T15:38:18.000Z,41.5
2022-08-20T15:39:29.000Z,41.1
2022-08-20T15:40:39.000Z,40.5
2022-08-20T15:41:49.000Z,40.3
2022-08-20T15:42:59.000Z,39.8
2022-08-20T15:44:09.000Z,39.4
2022-08-20T15:45:19.000Z,39.1
2022-08-20T15:46:29.000Z,39.2
2022-08-20T15:47:38.000Z,40
2022-08-20T15:48:49.000Z,40.3
2022-08-20T15:49:59.000Z,39.6
2022-08-20T15:51:09.000Z,39.3
2022-08-20T15:52:19.000Z,39.2
2022-08-20T15:53:29.000Z,39.1
2022-08-20T15:54:39.000Z,39.8
2022-08-20T15:55:48.000Z,39.9
2022-08-20T15:56:57.000Z,39.5
2022-08-20T15:58:07.000Z,39
2022-08-20T15:59:16.000Z,38.6
2022-08-20T16:00:26.000Z,38.4
2022-08-20T16:01:36.000Z,38.3
2022-08-20T16:02:46.000Z,38.1
2022-08-20T16:03:56.000Z,38
2022-08-20T16:05:06.000Z,37.9
2022-08-20T16:06:16.000Z,37.8